Terminal Aerodrome Forecast
Issued by NWS

Home | Current Version | Previous Version | Text Only | Print | Product List | Glossary On
Versions: 1 2 3 4 5 6 7 8 9 10 11 12 13 14 15
715
FTUS45 KTFX 191129
TAFBZN
TAF
KBZN 191129Z 1912/2018 VRB05KT P6SM SCT020 OVC050
      TEMPO 1912/1914 4SM -SN BR BKN020
     FM192000 30006KT 4SM -SN SCT003 OVC015
     FM200600 VRB04KT P6SM FEW025 SCT050=

USA.gov is the U.S. government's official web portal to all federal, state and local government web resources and services.